Time;durP1;ratioP1;P1;durP2;ratioP2;P2;SDS_P1;SDS_P2;PMS_P1;PMS_P2;Temp;Humidity;BMP_temperature;BMP_pressure;BME280_temperature;BME280_humidity;BME280_pressure;Samples;Min_cycle;Max_cycle;Signal;HPM_P1;HPM_P2
2022/03/22 00:00:22;;;;;;;26.17;15.68;;;;;;;4.32;45.08;101521.44;5127194;28;20456;-30
2022/03/22 00:02:48;;;;;;;22.60;12.27;;;;;;;4.13;43.97;101498.56;5127224;27;20121;-36
2022/03/22 00:05:15;;;;;;;30.25;14.05;;;;;;;4.29;45.06;101519.09;5128722;27;20039;-34
2022/03/22 00:07:41;;;;;;;26.73;14.52;;;;;;;4.39;44.92;101513.78;5128911;28;20035;-29
2022/03/22 00:10:07;;;;;;;26.25;15.02;;;;;;;4.43;45.20;101509.88;5128675;27;20091;-30
2022/03/22 00:12:33;;;;;;;27.45;14.60;;;;;;;4.39;45.61;101519.91;5127104;28;20023;-30
2022/03/22 00:14:58;;;;;;;29.67;16.25;;;;;;;4.24;45.30;101510.75;5128325;28;20027;-29
2022/03/22 00:17:24;;;;;;;23.98;14.73;;;;;;;4.32;46.78;101510.88;5128619;28;20042;-35
2022/03/22 00:19:49;;;;;;;31.33;15.68;;;;;;;4.15;47.34;101506.34;5128715;27;20027;-29
2022/03/22 00:22:15;;;;;;;25.63;15.10;;;;;;;4.15;45.79;101498.41;5128627;27;20016;-33
2022/03/22 00:24:40;;;;;;;32.95;16.35;;;;;;;4.40;45.95;101511.00;5128473;28;20032;-31
2022/03/22 00:27:06;;;;;;;25.33;13.90;;;;;;;4.31;46.90;101511.88;5128090;28;20023;-32
2022/03/22 00:29:32;;;;;;;22.23;13.35;;;;;;;4.25;47.15;101512.44;5126848;28;20484;-33
2022/03/22 00:31:58;;;;;;;29.75;15.02;;;;;;;4.32;45.31;101508.22;5132111;27;20086;-30
2022/03/22 00:34:24;;;;;;;27.67;14.38;;;;;;;4.24;44.79;101489.63;5152922;27;20471;-32
2022/03/22 00:36:50;;;;;;;25.05;14.40;;;;;;;4.27;44.88;101493.78;5152859;27;20038;-31
2022/03/22 00:39:16;;;;;;;39.85;19.88;;;;;;;4.75;44.96;101514.78;5152794;27;20407;-34
2022/03/22 00:41:41;;;;;;;19.98;10.45;;;;;;;4.75;43.77;101504.22;5152974;27;20090;-30
2022/03/22 00:44:08;;;;;;;25.38;13.60;;;;;;;4.47;45.15;101484.84;5152871;27;20031;-31
2022/03/22 00:46:35;;;;;;;25.52;13.07;;;;;;;4.36;44.69;101483.19;5134188;27;20106;-32
2022/03/22 00:49:02;;;;;;;25.08;13.07;;;;;;;4.25;46.02;101491.31;5133461;27;20081;-29
2022/03/22 00:51:28;;;;;;;25.88;13.07;;;;;;;4.13;45.59;101472.16;5152939;27;20526;-30
2022/03/22 00:53:54;;;;;;;29.85;14.43;;;;;;;4.21;45.42;101482.00;5133859;27;20609;-29
2022/03/22 00:56:19;;;;;;;25.25;13.38;;;;;;;4.15;45.67;101487.84;5133931;27;20037;-30
2022/03/22 00:58:45;;;;;;;22.10;12.38;;;;;;;4.08;45.44;101487.56;5133858;27;20031;-31
2022/03/22 01:01:10;;;;;;;28.27;14.45;;;;;;;4.11;45.25;101473.28;5152288;27;20033;-32
2022/03/22 01:03:36;;;;;;;26.23;14.13;;;;;;;4.15;44.73;101479.94;5152205;27;20034;-34
2022/03/22 01:06:01;;;;;;;26.48;12.88;;;;;;;4.15;44.67;101479.94;5152465;27;20023;-29
2022/03/22 01:08:29;;;;;;;26.15;12.50;;;;;;;4.22;45.28;101483.66;5152327;27;20407;-29
2022/03/22 01:10:54;;;;;;;25.48;13.00;;;;;;;4.07;45.31;101462.16;5152158;27;20039;-30
2022/03/22 01:13:27;;;;;;;23.40;11.60;;;;;;;4.12;45.46;101456.44;5133609;27;20103;-34
2022/03/22 01:15:53;;;;;;;28.77;14.50;;;;;;;4.21;45.32;101460.88;5152153;27;20030;-31
2022/03/22 01:18:19;;;;;;;31.25;14.55;;;;;;;4.21;45.08;101463.53;5152030;27;20023;-29
2022/03/22 01:20:47;;;;;;;23.13;12.23;;;;;;;4.23;45.33;101472.13;5133470;27;20026;-29
2022/03/22 01:23:12;;;;;;;20.35;11.00;;;;;;;4.31;45.80;101466.97;5133587;27;20036;-33
2022/03/22 01:25:41;;;;;;;19.75;11.48;;;;;;;4.27;46.62;101462.94;5133294;27;20076;-34
2022/03/22 01:28:08;;;;;;;18.75;10.30;;;;;;;4.35;44.46;101465.72;5133386;27;20118;-30
2022/03/22 01:30:35;;;;;;;19.52;10.52;;;;;;;4.34;44.23;101448.19;5152029;27;20494;-29
2022/03/22 01:33:02;;;;;;;19.85;10.38;;;;;;;4.37;44.43;101453.19;5132879;27;20154;-29
2022/03/22 01:35:27;;;;;;;19.70;10.80;;;;;;;4.42;43.50;101450.94;5133342;27;20030;-29
2022/03/22 01:37:55;;;;;;;18.67;10.45;;;;;;;4.48;42.57;101438.13;5151985;27;20026;-29
2022/03/22 01:40:23;;;;;;;21.20;10.68;;;;;;;4.57;42.25;101455.75;5133187;27;20775;-29
2022/03/22 01:42:49;;;;;;;20.38;11.65;;;;;;;4.61;42.62;101452.66;5132277;27;20026;-31
2022/03/22 01:45:16;;;;;;;18.73;9.68;;;;;;;4.37;43.37;101432.06;5132908;27;20099;-29
2022/03/22 01:47:43;;;;;;;18.75;10.02;;;;;;;4.52;43.20;101450.09;5151992;27;20030;-30
2022/03/22 01:50:11;;;;;;;17.35;9.35;;;;;;;4.85;42.65;101439.91;5133030;27;20034;-30
2022/03/22 01:52:42;;;;;;;18.23;10.18;;;;;;;4.86;43.22;101442.38;5132840;27;20506;-33
2022/03/22 01:55:09;;;;;;;18.95;10.48;;;;;;;4.63;44.06;101441.94;5151416;27;20072;-31
2022/03/22 01:57:35;;;;;;;18.92;10.63;;;;;;;4.26;44.78;101419.03;5151438;27;20466;-39
2022/03/22 02:00:03;;;;;;;19.50;10.23;;;;;;;4.17;45.26;101419.91;5151405;27;20030;-33
2022/03/22 02:08:01;;;;;;;17.98;10.48;;;;;;;4.56;44.99;101420.56;5151210;27;20030;-32
2022/03/22 02:10:27;;;;;;;18.70;10.20;;;;;;;4.62;44.58;101417.34;5132383;27;20031;-32
2022/03/22 02:12:53;;;;;;;18.38;10.43;;;;;;;4.83;44.21;101424.19;5132328;27;20034;-30
2022/03/22 02:15:19;;;;;;;22.17;11.35;;;;;;;4.91;44.13;101431.38;5132492;27;20023;-29
2022/03/22 02:17:45;;;;;;;23.45;10.52;;;;;;;4.72;43.18;101404.09;5132316;27;20414;-31
2022/03/22 02:20:14;;;;;;;19.08;10.73;;;;;;;4.64;43.70;101396.06;5150908;27;20026;-31
2022/03/22 02:22:45;;;;;;;18.85;10.70;;;;;;;4.84;44.10;101423.19;5150764;27;20018;-34
2022/03/22 02:25:15;;;;;;;18.42;9.98;;;;;;;4.75;43.53;101400.31;5131926;27;20058;-31
2022/03/22 02:27:45;;;;;;;16.95;10.13;;;;;;;4.95;42.97;101420.38;5150964;27;20069;-30
2022/03/22 02:30:12;;;;;;;20.98;10.65;;;;;;;5.38;42.04;101433.84;5150729;27;20027;-29
2022/03/22 02:32:38;;;;;;;18.00;11.20;;;;;;;5.27;42.76;101418.19;5150483;27;20502;-35
2022/03/22 02:35:04;;;;;;;17.45;10.95;;;;;;;5.02;44.85;101415.31;5150230;27;20105;-31
2022/03/22 02:37:30;;;;;;;18.05;10.98;;;;;;;5.01;43.84;101416.31;5131670;27;20042;-29
2022/03/22 02:39:56;;;;;;;17.05;9.82;;;;;;;4.95;44.18;101403.69;5150763;27;20130;-29
2022/03/22 02:42:21;;;;;;;20.42;11.10;;;;;;;4.93;45.14;101409.09;5150764;27;20217;-31
2022/03/22 02:44:46;;;;;;;19.92;10.35;;;;;;;5.32;43.71;101408.00;5150348;27;20118;-43
2022/03/22 02:47:12;;;;;;;17.65;10.50;;;;;;;5.24;44.31;101406.94;5131824;27;20037;-35
2022/03/22 02:49:37;;;;;;;18.58;10.45;;;;;;;4.88;45.29;101410.53;5131747;27;20023;-30
2022/03/22 02:52:03;;;;;;;20.02;11.73;;;;;;;5.02;45.47;101415.31;5131317;27;20030;-30
2022/03/22 02:54:28;;;;;;;18.55;11.18;;;;;;;5.15;44.31;101394.63;5149693;27;20079;-30
2022/03/22 02:56:54;;;;;;;17.40;10.18;;;;;;;5.08;45.06;101409.41;5150300;27;20030;-30
2022/03/22 02:59:19;;;;;;;19.52;11.30;;;;;;;4.92;45.46;101396.84;5150146;27;20022;-29
2022/03/22 03:01:45;;;;;;;19.20;11.77;;;;;;;4.80;46.46;101388.31;5150199;27;20668;-29
2022/03/22 03:04:10;;;;;;;21.50;11.57;;;;;;;4.59;47.31;101385.09;5149994;27;20027;-33
2022/03/22 03:06:36;;;;;;;16.67;10.82;;;;;;;4.56;47.52;101401.25;5149797;27;20033;-33
2022/03/22 03:09:02;;;;;;;21.08;11.15;;;;;;;4.93;46.56;101414.41;5150079;27;20403;-30
2022/03/22 03:11:27;;;;;;;20.55;11.65;;;;;;;4.79;46.72;101384.00;5150105;27;20105;-29
2022/03/22 03:16:39;;;;;;;18.67;10.57;;;;;;;4.52;47.52;101376.09;5150123;27;20515;-29
2022/03/22 03:19:05;;;;;;;18.73;11.05;;;;;;;4.33;47.97;101391.06;5130714;27;20027;-31
2022/03/22 03:21:30;;;;;;;18.83;11.25;;;;;;;4.69;47.21;101367.38;5131329;27;20018;-30
2022/03/22 03:23:56;;;;;;;20.02;10.98;;;;;;;4.75;47.31;101385.28;5149809;27;20471;-29
2022/03/22 03:26:21;;;;;;;16.52;9.98;;;;;;;4.66;47.73;101378.25;5149928;27;20019;-31
2022/03/22 03:28:47;;;;;;;19.98;11.15;;;;;;;4.68;48.63;101376.31;5130950;27;20049;-30
2022/03/22 03:31:12;;;;;;;18.38;10.90;;;;;;;4.90;47.66;101396.16;5149890;27;20030;-31
2022/03/22 03:33:38;;;;;;;19.33;10.70;;;;;;;4.94;47.51;101391.44;5149347;27;20070;-30
2022/03/22 03:36:03;;;;;;;18.33;10.73;;;;;;;5.19;46.84;101388.06;5131219;27;20095;-29
2022/03/22 03:38:29;;;;;;;19.23;10.68;;;;;;;4.83;47.26;101373.97;5130874;27;20572;-30
2022/03/22 03:43:38;;;;;;;19.13;10.45;;;;;;;4.89;45.75;101372.56;5149469;27;20409;-32
2022/03/22 03:48:48;;;;;;;17.90;9.75;;;;;;;4.63;46.89;101358.22;5149302;27;20029;-34
2022/03/22 03:51:13;;;;;;;19.35;10.23;;;;;;;4.50;48.31;101362.22;5149549;27;20429;-29
2022/03/22 03:53:39;;;;;;;22.73;10.93;;;;;;;4.43;47.16;101336.38;5149197;27;20023;-32
2022/03/22 03:56:04;;;;;;;22.50;11.30;;;;;;;4.67;46.28;101364.06;5130476;27;20031;-30
2022/03/22 03:58:30;;;;;;;16.30;10.30;;;;;;;4.74;45.32;101369.56;5149287;27;20031;-33
2022/03/22 04:00:56;;;;;;;17.45;9.95;;;;;;;4.92;44.27;101357.19;5130398;27;20019;-32
2022/03/22 04:03:21;;;;;;;20.30;11.35;;;;;;;5.34;44.77;101377.75;5149511;27;20442;-33
2022/03/22 04:05:47;;;;;;;22.73;12.57;;;;;;;5.48;45.11;101371.09;5131019;27;20031;-35
2022/03/22 04:08:12;;;;;;;20.15;11.32;;;;;;;5.21;45.23;101357.00;5153577;27;20027;-32
2022/03/22 04:10:38;;;;;;;17.88;9.55;;;;;;;4.95;45.84;101371.94;5153410;27;20091;-29
2022/03/22 04:13:03;;;;;;;18.55;10.25;;;;;;;5.04;45.30;101349.88;5153028;27;20749;-30
2022/03/22 04:15:29;;;;;;;16.75;10.65;;;;;;;5.25;44.65;101368.13;5153266;27;20807;-30
2022/03/22 04:17:59;;;;;;;20.05;9.90;;;;;;;5.56;44.26;101370.34;5153418;27;20031;-31
2022/03/22 04:20:25;;;;;;;19.73;11.25;;;;;;;5.15;45.54;101368.19;5134599;27;20771;-32
2022/03/22 04:22:51;;;;;;;18.10;9.90;;;;;;;4.87;46.06;101363.94;5134168;27;20106;-30
2022/03/22 04:25:18;;;;;;;16.48;9.63;;;;;;;4.73;47.19;101374.03;5152982;27;20023;-32
2022/03/22 04:33:11;;;;;;;18.40;9.13;;;;;;;5.14;44.55;101369.16;5152616;27;20103;-34
2022/03/22 04:35:37;;;;;;;17.25;9.65;;;;;;;5.19;45.08;101368.69;5152901;27;20035;-30
2022/03/22 04:38:02;;;;;;;15.88;9.35;;;;;;;5.09;45.54;101368.78;5152798;27;20494;-31
2022/03/22 04:40:28;;;;;;;17.02;9.68;;;;;;;5.01;46.14;101348.38;5152738;27;20061;-29
2022/03/22 04:42:54;;;;;;;17.23;9.73;;;;;;;4.99;45.55;101362.75;5134045;27;20118;-31
2022/03/22 04:45:19;;;;;;;17.48;10.25;;;;;;;5.03;46.03;101366.75;5152708;27;20019;-30
2022/03/22 04:47:45;;;;;;;17.33;10.25;;;;;;;4.96;46.13;101347.16;5152860;27;20022;-29
2022/03/22 04:50:12;;;;;;;19.52;11.43;;;;;;;5.06;47.44;101366.44;5134008;27;20026;-29
2022/03/22 04:58:05;;;;;;;18.55;10.13;;;;;;;5.00;45.53;101348.53;5152440;27;20037;-32
2022/03/22 05:00:34;;;;;;;18.10;10.63;;;;;;;4.60;46.80;101336.56;5152392;27;20023;-30
2022/03/22 05:02:59;;;;;;;;;;;;;;;4.77;45.22;101354.25;5152464;27;20444;-32
2022/03/22 05:08:08;;;;;;;18.50;10.63;;;;;;;5.20;45.11;101352.69;5152230;27;20033;-29
2022/03/22 05:10:34;;;;;;;18.02;9.93;;;;;;;5.22;45.43;101339.31;5152092;27;20031;-31
2022/03/22 05:13:00;;;;;;;24.38;11.48;;;;;;;5.43;45.04;101344.25;5151861;27;20038;-35
2022/03/22 05:15:26;;;;;;;23.58;10.90;;;;;;;5.70;44.38;101356.56;5151927;27;20031;-29
2022/03/22 05:17:51;;;;;;;20.80;11.80;;;;;;;5.36;46.01;101336.13;5132335;27;20534;-33
2022/03/22 05:20:17;;;;;;;23.92;11.13;;;;;;;5.36;46.27;101317.59;5152165;27;20026;-30
2022/03/22 05:22:43;;;;;;;19.60;10.40;;;;;;;5.46;46.22;101341.31;5152181;27;20482;-31
2022/03/22 05:25:09;;;;;;;20.92;11.63;;;;;;;5.35;45.73;101341.56;5132932;27;20081;-29
2022/03/22 05:27:38;;;;;;;19.05;10.90;;;;;;;5.21;46.74;101338.50;5152001;27;20435;-29
2022/03/22 05:30:05;;;;;;;17.25;10.00;;;;;;;5.03;46.06;101327.09;5151845;27;20027;-30
2022/03/22 05:32:31;;;;;;;19.50;11.13;;;;;;;5.32;46.54;101328.66;5132705;27;20050;-29
2022/03/22 05:34:56;;;;;;;16.88;10.20;;;;;;;5.62;45.92;101333.50;5151555;27;20469;-30
2022/03/22 05:37:22;;;;;;;19.80;10.63;;;;;;;5.39;45.75;101312.03;5151979;27;20562;-34
2022/03/22 05:39:48;;;;;;;17.80;10.07;;;;;;;5.60;46.28;101324.88;5151758;27;20033;-32
2022/03/22 05:42:16;;;;;;;17.00;10.43;;;;;;;5.62;47.13;101327.38;5151552;27;20387;-30
2022/03/22 05:44:43;;;;;;;21.85;12.02;;;;;;;5.81;45.72;101315.75;5151406;27;20118;-33
2022/03/22 05:47:09;;;;;;;20.75;11.20;;;;;;;6.19;43.15;101335.69;5132343;27;20559;-31
2022/03/22 05:49:36;;;;;;;17.40;11.05;;;;;;;6.15;44.08;101328.19;5151574;27;20025;-30
2022/03/22 05:52:06;;;;;;;20.92;10.98;;;;;;;6.37;44.05;101342.69;5132769;27;20405;-29
2022/03/22 05:54:32;;;;;;;20.48;11.13;;;;;;;6.31;44.33;101338.03;5151437;27;20027;-29
2022/03/22 05:56:57;;;;;;;16.65;10.05;;;;;;;6.47;42.84;101326.66;5132324;27;20489;-34
2022/03/22 05:59:23;;;;;;;20.00;12.15;;;;;;;6.46;41.51;101335.59;5132573;27;20109;-38
2022/03/22 06:01:49;;;;;;;20.00;10.90;;;;;;;6.67;41.55;101345.78;5151345;27;20027;-33
2022/03/22 06:04:14;;;;;;;18.65;10.60;;;;;;;6.95;40.93;101328.59;5132689;27;20031;-34
2022/03/22 06:06:40;;;;;;;21.23;11.25;;;;;;;7.22;41.39;101338.06;5151353;27;20029;-30
2022/03/22 06:09:06;;;;;;;21.08;11.15;;;;;;;7.48;40.08;101331.75;5150847;27;20034;-32
2022/03/22 06:11:35;;;;;;;22.67;10.90;;;;;;;7.71;39.16;101354.97;5132350;27;20095;-29
2022/03/22 06:14:05;;;;;;;17.17;10.13;;;;;;;7.53;39.35;101336.56;5131960;27;20117;-30
2022/03/22 06:16:31;;;;;;;20.58;11.57;;;;;;;7.67;39.99;101335.06;5132401;27;20495;-29
2022/03/22 06:18:58;;;;;;;19.48;10.27;;;;;;;7.81;40.02;101326.41;5132047;27;20043;-32
2022/03/22 06:21:24;;;;;;;20.60;11.10;;;;;;;7.98;40.07;101335.97;5132242;27;20022;-33
2022/03/22 06:23:49;;;;;;;18.85;11.35;;;;;;;7.83;37.51;101317.25;5150754;27;20035;-34
2022/03/22 06:26:15;;;;;;;19.55;11.45;;;;;;;7.86;36.56;101308.09;5150867;27;20406;-31
2022/03/22 06:28:41;;;;;;;19.08;10.63;;;;;;;8.19;36.08;101329.25;5131777;27;20110;-30
2022/03/22 06:31:06;;;;;;;17.98;9.80;;;;;;;8.21;36.07;101327.25;5131926;27;20556;-30
2022/03/22 06:33:33;;;;;;;17.77;10.07;;;;;;;8.29;35.00;101313.94;5150598;27;20047;-30
2022/03/22 06:35:59;;;;;;;20.42;10.52;;;;;;;8.51;35.08;101333.63;5150831;27;20163;-31
2022/03/22 06:38:25;;;;;;;16.92;9.68;;;;;;;8.74;35.20;101344.31;5131944;27;20062;-30
2022/03/22 06:40:51;;;;;;;19.90;9.95;;;;;;;8.73;34.37;101340.00;5150174;27;20047;-31
2022/03/22 06:43:18;;;;;;;17.33;9.50;;;;;;;8.64;35.05;101349.00;5150144;27;20083;-32
2022/03/22 06:45:45;;;;;;;17.83;9.68;;;;;;;8.66;33.98;101325.72;5150558;27;20038;-32
2022/03/22 06:48:11;;;;;;;17.98;9.65;;;;;;;9.05;34.33;101348.75;5131788;27;20068;-31
2022/03/22 06:50:38;;;;;;;14.80;8.82;;;;;;;9.21;33.73;101338.00;5131753;27;20034;-33
2022/03/22 06:53:06;;;;;;;17.38;9.95;;;;;;;9.00;34.08;101340.50;5131267;27;20044;-33
2022/03/22 06:55:32;;;;;;;16.40;9.60;;;;;;;9.25;33.56;101344.63;5149913;27;20118;-43
2022/03/22 06:57:58;;;;;;;20.27;10.27;;;;;;;9.40;33.75;101323.38;5131565;27;20661;-30
2022/03/22 07:00:28;;;;;;;18.60;11.35;;;;;;;9.44;33.39;101339.81;5149925;27;20031;-36
2022/03/22 07:02:55;;;;;;;21.27;10.88;;;;;;;9.59;34.02;101335.34;5130901;27;20049;-30
2022/03/22 07:05:21;;;;;;;18.77;11.00;;;;;;;9.83;33.46;101325.47;5149894;27;20083;-29
2022/03/22 07:07:47;;;;;;;16.90;10.52;;;;;;;9.95;32.55;101337.31;5131167;27;20086;-35
2022/03/22 07:10:18;;;;;;;18.70;10.90;;;;;;;10.17;32.33;101318.72;5149171;27;20463;-34
2022/03/22 07:12:54;;;;;;;18.20;11.00;;;;;;;9.87;32.09;101318.75;5130874;27;20027;-30
2022/03/22 07:15:29;;;;;;;18.35;10.23;;;;;;;10.15;31.38;101348.22;5131190;27;20030;-32
2022/03/22 07:17:55;;;;;;;17.95;10.35;;;;;;;9.96;32.45;101312.31;5149836;27;20030;-31
2022/03/22 07:20:21;;;;;;;16.45;10.40;;;;;;;9.90;32.22;101318.38;5149749;27;20038;-29
2022/03/22 07:22:47;;;;;;;30.50;16.85;;;;;;;9.89;32.49;101329.22;5130644;27;20046;-31
2022/03/22 07:25:13;;;;;;;32.50;18.60;;;;;;;10.25;32.36;101326.63;5149665;27;20027;-29
2022/03/22 07:27:38;;;;;;;23.25;15.13;;;;;;;10.35;32.14;101340.53;5149416;27;20027;-30
2022/03/22 07:30:05;;;;;;;24.35;14.18;;;;;;;10.59;31.11;101335.91;5149708;27;20078;-35
2022/03/22 07:32:31;;;;;;;19.50;11.85;;;;;;;10.96;31.00;101334.84;5130549;27;20047;-29
2022/03/22 07:35:00;;;;;;;27.17;14.05;;;;;;;11.11;31.00;101321.44;5149095;27;20086;-30
2022/03/22 07:37:28;;;;;;;21.58;11.88;;;;;;;11.60;31.14;101325.94;5149283;27;20033;-30
2022/03/22 07:39:54;;;;;;;18.73;11.68;;;;;;;11.89;31.41;101331.31;5149552;27;20731;-33
2022/03/22 07:42:24;;;;;;;19.23;10.35;;;;;;;12.03;30.08;101315.16;5130320;27;20029;-31
2022/03/22 07:44:49;;;;;;;20.80;14.93;;;;;;;12.20;31.87;101320.19;5149027;27;20058;-30
2022/03/22 07:47:15;;;;;;;52.03;32.28;;;;;;;12.55;29.43;101330.81;5149301;27;20062;-32
2022/03/22 07:55:10;;;;;;;73.43;36.03;;;;;;;12.44;29.32;101311.63;5148843;27;20042;-30
2022/03/22 07:57:35;;;;;;;58.85;30.52;;;;;;;12.50;30.42;101314.50;5130374;27;20422;-31
2022/03/22 08:00:04;;;;;;;41.08;21.13;;;;;;;12.70;29.57;101315.41;5148974;27;20477;-32
2022/03/22 08:02:29;;;;;;;;;;;;;;;12.53;30.32;101317.63;5130599;27;20033;-32
2022/03/22 08:04:54;;;;;;;28.80;14.60;;;;;;;12.74;30.32;101297.91;5148915;27;19911;-33
2022/03/22 08:07:20;;;;;;;19.58;9.95;;;;;;;13.12;29.13;101297.34;5149179;27;20878;-30
2022/03/22 08:09:45;;;;;;;17.50;10.32;;;;;;;13.25;29.08;101267.88;5148844;27;20030;-31
2022/03/22 08:12:12;;;;;;;19.20;10.45;;;;;;;13.31;30.13;101289.56;5149054;27;20023;-32
2022/03/22 08:14:38;;;;;;;24.75;14.50;;;;;;;13.87;31.04;101283.66;5130002;27;20474;-30
2022/03/22 08:17:04;;;;;;;17.92;9.90;;;;;;;13.82;30.18;101292.34;5129748;27;20031;-30
2022/03/22 08:19:29;;;;;;;18.27;9.55;;;;;;;13.65;29.59;101286.63;5130637;27;20146;-29
2022/03/22 08:21:55;;;;;;;25.83;15.70;;;;;;;13.93;29.35;101272.09;5148952;27;20100;-31
2022/03/22 08:24:22;;;;;;;13.93;8.15;;;;;;;13.54;28.91;101273.84;5149060;27;20110;-33
2022/03/22 08:26:48;;;;;;;15.65;8.73;;;;;;;13.55;32.35;101254.06;5148647;27;20019;-32
2022/03/22 08:29:14;;;;;;;14.65;7.75;;;;;;;13.90;32.33;101261.81;5130262;27;20031;-39
2022/03/22 08:31:39;;;;;;;12.40;7.95;;;;;;;14.02;32.34;101270.84;5148244;27;20379;-29
2022/03/22 08:34:05;;;;;;;13.27;6.95;;;;;;;13.74;33.23;101230.09;5149216;27;20027;-31
2022/03/22 08:36:33;;;;;;;12.75;6.65;;;;;;;13.87;31.60;101256.84;5149070;27;20474;-30
2022/03/22 08:38:59;;;;;;;15.50;6.85;;;;;;;13.69;34.16;101237.94;5130068;27;20063;-31
2022/03/22 08:41:24;;;;;;;12.23;5.25;;;;;;;14.01;32.96;101246.91;5148841;27;20023;-34
2022/03/22 08:43:50;;;;;;;16.23;8.32;;;;;;;14.33;32.85;101234.38;5148281;27;20086;-32
2022/03/22 08:46:15;;;;;;;19.25;7.30;;;;;;;14.41;31.90;101252.09;5148463;27;20514;-30
2022/03/22 08:48:41;;;;;;;13.02;8.07;;;;;;;14.53;31.77;101228.06;5148578;27;20027;-29
2022/03/22 08:51:06;;;;;;;12.15;8.13;;;;;;;14.68;33.37;101201.75;5148458;27;20911;-32
2022/03/22 08:53:32;;;;;;;35.30;13.73;;;;;;;15.15;32.26;101230.91;5150026;27;20031;-32
2022/03/22 08:56:02;;;;;;;59.45;10.43;;;;;;;14.66;32.34;101207.34;5152614;27;20600;-31
2022/03/22 08:58:28;;;;;;;33.08;11.85;;;;;;;14.78;34.40;101194.03;5152325;27;20054;-29
2022/03/22 09:00:53;;;;;;;43.22;17.83;;;;;;;14.98;33.70;101214.53;5151864;27;20530;-33
2022/03/22 09:03:21;;;;;;;34.03;23.60;;;;;;;15.62;32.21;101207.88;5152839;27;20034;-31
2022/03/22 09:11:52;;;;;;;51.22;19.67;;;;;;;14.94;31.74;101194.53;5152072;27;20045;-33
2022/03/22 09:14:17;;;;;;;29.75;10.55;;;;;;;14.73;31.99;101203.78;5132917;27;20018;-32
2022/03/22 09:16:43;;;;;;;17.65;7.72;;;;;;;14.89;31.70;101205.09;5133177;27;20496;-30
2022/03/22 09:19:08;;;;;;;24.55;7.28;;;;;;;14.70;32.21;101180.88;5151463;27;20019;-30
2022/03/22 09:21:35;;;;;;;31.17;9.38;;;;;;;14.71;33.06;101189.75;5151493;27;20428;-30
2022/03/22 09:24:03;;;;;;;17.67;7.83;;;;;;;14.91;32.49;101189.59;5132903;27;20023;-32
2022/03/22 09:26:28;;;;;;;22.77;10.88;;;;;;;15.19;32.86;101200.69;5151445;27;20406;-32
2022/03/22 09:28:53;;;;;;;38.72;24.83;;;;;;;15.20;31.63;101202.34;5151254;27;20030;-32
2022/03/22 09:31:22;;;;;;;47.45;29.42;;;;;;;15.17;32.19;101201.97;5151311;27;20410;-31
2022/03/22 09:33:51;;;;;;;24.05;10.98;;;;;;;14.96;32.14;101200.53;5150755;27;20142;-37
2022/03/22 09:36:17;;;;;;;463.02;246.73;;;;;;;15.59;32.16;101194.06;5151177;27;20027;-30
2022/03/22 09:38:44;;;;;;;150.07;89.18;;;;;;;15.52;31.73;101194.16;5132824;27;20022;-31
2022/03/22 09:41:13;;;;;;;72.32;44.03;;;;;;;15.61;31.24;101187.44;5132253;27;20018;-36
2022/03/22 09:43:46;;;;;;;41.03;27.15;;;;;;;15.48;30.91;101179.50;5132636;27;20034;-31
2022/03/22 09:46:18;;;;;;;39.03;30.40;;;;;;;15.67;31.21;101173.09;5151227;27;20734;-29
2022/03/22 09:48:44;;;;;;;18.58;12.60;;;;;;;15.63;31.36;101177.28;5150855;27;20031;-31
2022/03/22 09:53:54;;;;;;;28.70;9.32;;;;;;;15.50;30.25;101147.84;5150870;27;20517;-33
2022/03/22 09:56:20;;;;;;;36.55;26.85;;;;;;;15.92;28.80;101156.06;5150815;27;20035;-33
2022/03/22 09:58:45;;;;;;;43.00;28.10;;;;;;;15.87;29.56;101153.22;5150850;27;20172;-32
2022/03/22 10:01:12;;;;;;;26.23;12.43;;;;;;;15.41;29.70;101144.66;5150361;27;20034;-33
2022/03/22 10:03:39;;;;;;;17.23;13.20;;;;;;;15.74;30.87;101167.66;5150629;27;20023;-30
2022/03/22 10:06:05;;;;;;;17.23;9.40;;;;;;;16.10;29.55;101165.13;5150717;27;20422;-35
2022/03/22 10:08:31;;;;;;;17.05;12.30;;;;;;;16.18;29.71;101144.09;5151070;27;20105;-30
2022/03/22 10:10:58;;;;;;;20.90;17.80;;;;;;;16.03;29.36;101141.81;5131908;27;20130;-29
2022/03/22 10:13:25;;;;;;;25.92;15.43;;;;;;;15.89;28.99;101129.59;5131939;27;20096;-32
2022/03/22 10:15:50;;;;;;;20.73;15.32;;;;;;;16.15;29.06;101132.97;5131630;27;20430;-33
2022/03/22 10:18:24;;;;;;;35.00;23.60;;;;;;;16.35;28.92;101141.56;5150742;27;20029;-30
2022/03/22 10:20:59;;;;;;;34.13;20.52;;;;;;;16.38;29.49;101135.69;5150311;27;20034;-34
2022/03/22 10:23:25;;;;;;;55.47;28.33;;;;;;;16.15;28.36;101122.22;5150303;27;20117;-32
2022/03/22 10:26:02;;;;;;;58.88;26.45;;;;;;;16.27;28.60;101141.91;5150074;27;20051;-35
2022/03/22 10:28:27;;;;;;;48.33;24.73;;;;;;;16.07;28.84;101137.63;5131857;27;20140;-31
2022/03/22 10:30:59;;;;;;;18.33;11.32;;;;;;;16.35;28.62;101111.94;5150211;27;20683;-32
2022/03/22 10:33:25;;;;;;;15.02;7.50;;;;;;;16.64;27.99;101131.75;5149931;27;20054;-31
2022/03/22 10:35:50;;;;;;;23.08;8.43;;;;;;;16.55;29.00;101125.09;5150140;27;20029;-33
2022/03/22 10:38:20;;;;;;;12.15;6.25;;;;;;;16.58;27.91;101115.72;5150013;27;20030;-33
2022/03/22 10:40:48;;;;;;;197.38;98.88;;;;;;;16.73;29.07;101112.56;5131049;27;20121;-30
2022/03/22 10:43:23;;;;;;;80.45;72.13;;;;;;;16.43;27.73;101122.38;5131449;27;20042;-34
2022/03/22 10:45:48;;;;;;;83.90;76.50;;;;;;;16.84;27.92;101125.25;5149863;27;20426;-30
2022/03/22 10:48:19;;;;;;;62.92;57.00;;;;;;;17.13;27.96;101111.88;5149862;27;20031;-35
2022/03/22 10:50:47;;;;;;;24.95;20.33;;;;;;;16.95;27.09;101120.91;5149836;27;20065;-32
2022/03/22 10:53:21;;;;;;;31.77;27.70;;;;;;;16.72;28.25;101121.72;5130699;27;20058;-30
2022/03/22 10:55:48;;;;;;;14.93;11.85;;;;;;;16.75;27.94;101113.97;5131050;27;20029;-30
2022/03/22 10:58:25;;;;;;;31.30;8.83;;;;;;;17.05;27.31;101099.59;5131133;27;20043;-36
2022/03/22 11:00:51;;;;;;;12.82;6.65;;;;;;;16.78;27.56;101083.88;5149720;27;20030;-33
2022/03/22 11:03:18;;;;;;;11.38;6.25;;;;;;;16.70;27.53;101086.94;5149747;27;20022;-31
2022/03/22 11:05:51;;;;;;;13.48;6.72;;;;;;;17.02;27.71;101105.44;5149420;27;20031;-30
2022/03/22 11:08:22;;;;;;;16.75;7.30;;;;;;;17.38;27.69;101100.78;5149869;27;20019;-32
2022/03/22 11:10:49;;;;;;;9.82;6.40;;;;;;;18.07;26.95;101079.19;5130751;27;20038;-32
2022/03/22 11:13:15;;;;;;;11.52;7.20;;;;;;;18.01;26.93;101078.28;5130728;27;20027;-32
2022/03/22 11:15:44;;;;;;;212.05;115.20;;;;;;;17.40;26.63;101090.59;5130090;27;20054;-35
2022/03/22 11:18:10;;;;;;;185.20;93.80;;;;;;;17.15;28.02;101078.22;5130405;27;20027;-32
2022/03/22 11:20:36;;;;;;;50.25;38.65;;;;;;;17.34;27.99;101057.31;5130714;27;20087;-35
2022/03/22 11:23:01;;;;;;;15.07;9.85;;;;;;;17.53;27.79;101054.44;5149158;27;20014;-30
2022/03/22 11:25:31;;;;;;;11.50;7.85;;;;;;;17.68;27.23;101060.94;5149256;27;20031;-32
2022/03/22 11:28:08;;;;;;;12.63;7.63;;;;;;;17.74;27.53;101069.13;5130590;27;20069;-30
2022/03/22 11:30:39;;;;;;;12.52;8.65;;;;;;;17.57;27.88;101032.16;5149240;27;20587;-29
2022/03/22 11:35:57;;;;;;;13.77;9.82;;;;;;;17.70;26.61;101054.50;5149129;27;20041;-33
2022/03/22 11:38:50;;;;;;;11.52;8.65;;;;;;;17.73;27.23;101045.91;5130312;27;20514;-30
2022/03/22 11:44:29;;;;;;;15.63;8.63;;;;;;;17.57;27.98;101021.38;5149196;27;20095;-33
2022/03/22 11:47:00;;;;;;;16.90;10.63;;;;;;;17.40;26.77;101031.28;5148626;27;20102;-30
2022/03/22 11:49:26;;;;;;;13.45;8.20;;;;;;;17.34;26.85;101013.38;5148725;27;20034;-32
2022/03/22 11:52:13;;;;;;;16.67;11.98;;;;;;;17.82;26.78;101025.56;5130332;27;20034;-34
2022/03/22 11:54:40;;;;;;;15.05;7.57;;;;;;;18.04;26.77;101029.22;5148179;27;20042;-32
2022/03/22 11:57:07;;;;;;;15.07;7.03;;;;;;;16.84;27.56;101031.78;5129962;27;20494;-33
2022/03/22 11:59:43;;;;;;;12.90;7.03;;;;;;;17.03;27.83;101027.06;5130471;27;20046;-30
2022/03/22 12:02:16;;;;;;;12.45;7.05;;;;;;;17.15;28.16;101020.81;5149028;27;20425;-30